sensor_id;sensor_type;location;lat;lon;timestamp;temperature;humidity
4308;DHT22;2167;53.448;9.984;2023-05-09T00:01:09;13.40;1.00
4308;DHT22;2167;53.448;9.984;2023-05-09T00:03:35;13.40;1.00
4308;DHT22;2167;53.448;9.984;2023-05-09T00:06:01;13.40;1.00
4308;DHT22;2167;53.448;9.984;2023-05-09T00:08:27;13.40;1.00
4308;DHT22;2167;53.448;9.984;2023-05-09T00:10:53;13.40;1.00
4308;DHT22;2167;53.448;9.984;2023-05-09T00:13:18;13.20;1.00
4308;DHT22;2167;53.448;9.984;2023-05-09T00:15:44;13.20;1.00
4308;DHT22;2167;53.448;9.984;2023-05-09T00:18:11;13.20;1.00
4308;DHT22;2167;53.448;9.984;2023-05-09T00:20:37;13.20;1.00
4308;DHT22;2167;53.448;9.984;2023-05-09T00:23:05;13.20;1.00
4308;DHT22;2167;53.448;9.984;2023-05-09T00:25:31;13.20;1.00
4308;DHT22;2167;53.448;9.984;2023-05-09T00:27:57;13.10;1.00
4308;DHT22;2167;53.448;9.984;2023-05-09T00:30:22;13.20;1.00
4308;DHT22;2167;53.448;9.984;2023-05-09T00:32:48;13.20;1.00
4308;DHT22;2167;53.448;9.984;2023-05-09T00:35:14;13.20;1.00
4308;DHT22;2167;53.448;9.984;2023-05-09T00:37:39;13.20;1.00
4308;DHT22;2167;53.448;9.984;2023-05-09T00:40:05;13.20;1.00
4308;DHT22;2167;53.448;9.984;2023-05-09T00:42:32;13.10;1.00
4308;DHT22;2167;53.448;9.984;2023-05-09T00:44:58;13.10;1.00
4308;DHT22;2167;53.448;9.984;2023-05-09T00:47:24;13.00;1.00
4308;DHT22;2167;53.448;9.984;2023-05-09T00:49:51;13.10;1.00
4308;DHT22;2167;53.448;9.984;2023-05-09T00:52:16;13.00;1.00
4308;DHT22;2167;53.448;9.984;2023-05-09T00:54:45;13.00;1.00
4308;DHT22;2167;53.448;9.984;2023-05-09T00:57:11;12.90;1.00
4308;DHT22;2167;53.448;9.984;2023-05-09T00:59:37;12.90;1.00
4308;DHT22;2167;53.448;9.984;2023-05-09T01:02:03;12.80;1.00
4308;DHT22;2167;53.448;9.984;2023-05-09T01:04:28;12.70;1.00
4308;DHT22;2167;53.448;9.984;2023-05-09T01:07:03;12.70;1.00
4308;DHT22;2167;53.448;9.984;2023-05-09T01:17:54;12.60;1.00
4308;DHT22;2167;53.448;9.984;2023-05-09T01:20:32;12.60;1.00
4308;DHT22;2167;53.448;9.984;2023-05-09T01:28:18;12.50;1.00
4308;DHT22;2167;53.448;9.984;2023-05-09T01:30:52;12.50;1.00
4308;DHT22;2167;53.448;9.984;2023-05-09T01:33:19;12.40;1.00
4308;DHT22;2167;53.448;9.984;2023-05-09T01:35:51;12.40;1.00
4308;DHT22;2167;53.448;9.984;2023-05-09T01:38:21;12.40;1.00
4308;DHT22;2167;53.448;9.984;2023-05-09T01:40:50;12.40;1.00
4308;DHT22;2167;53.448;9.984;2023-05-09T01:43:19;12.40;1.00
4308;DHT22;2167;53.448;9.984;2023-05-09T01:45:47;12.40;1.00
4308;DHT22;2167;53.448;9.984;2023-05-09T01:48:14;12.40;1.00
4308;DHT22;2167;53.448;9.984;2023-05-09T01:50:42;12.40;1.00
4308;DHT22;2167;53.448;9.984;2023-05-09T01:53:10;12.30;1.00
4308;DHT22;2167;53.448;9.984;2023-05-09T01:55:36;12.40;1.00
4308;DHT22;2167;53.448;9.984;2023-05-09T01:58:04;12.30;1.00
4308;DHT22;2167;53.448;9.984;2023-05-09T02:00:32;12.30;1.00
4308;DHT22;2167;53.448;9.984;2023-05-09T02:02:58;12.30;1.00
4308;DHT22;2167;53.448;9.984;2023-05-09T02:05:27;12.30;1.00
4308;DHT22;2167;53.448;9.984;2023-05-09T02:07:54;12.20;1.00
4308;DHT22;2167;53.448;9.984;2023-05-09T02:10:25;12.10;1.00
4308;DHT22;2167;53.448;9.984;2023-05-09T02:12:52;12.10;1.00
4308;DHT22;2167;53.448;9.984;2023-05-09T02:15:17;12.10;1.00
4308;DHT22;2167;53.448;9.984;2023-05-09T02:17:43;12.10;1.00
4308;DHT22;2167;53.448;9.984;2023-05-09T02:20:09;12.10;1.00
4308;DHT22;2167;53.448;9.984;2023-05-09T02:22:36;12.20;1.00
4308;DHT22;2167;53.448;9.984;2023-05-09T02:25:04;12.00;1.00
4308;DHT22;2167;53.448;9.984;2023-05-09T02:27:33;12.00;1.00
4308;DHT22;2167;53.448;9.984;2023-05-09T02:30:02;12.00;1.00
4308;DHT22;2167;53.448;9.984;2023-05-09T02:32:30;11.80;1.00
4308;DHT22;2167;53.448;9.984;2023-05-09T02:34:57;11.70;1.00
4308;DHT22;2167;53.448;9.984;2023-05-09T02:37:24;11.60;1.00
4308;DHT22;2167;53.448;9.984;2023-05-09T02:39:50;11.70;1.00
4308;DHT22;2167;53.448;9.984;2023-05-09T02:42:21;11.60;1.00
4308;DHT22;2167;53.448;9.984;2023-05-09T02:44:52;11.60;1.00
4308;DHT22;2167;53.448;9.984;2023-05-09T02:47:18;11.60;1.00
4308;DHT22;2167;53.448;9.984;2023-05-09T02:49:44;11.60;1.00
4308;DHT22;2167;53.448;9.984;2023-05-09T02:52:10;11.50;1.00
4308;DHT22;2167;53.448;9.984;2023-05-09T02:54:36;11.50;1.00
4308;DHT22;2167;53.448;9.984;2023-05-09T02:57:02;11.50;1.00
4308;DHT22;2167;53.448;9.984;2023-05-09T02:59:28;11.50;1.00
4308;DHT22;2167;53.448;9.984;2023-05-09T03:01:54;11.50;1.00
4308;DHT22;2167;53.448;9.984;2023-05-09T03:04:20;11.40;1.00
4308;DHT22;2167;53.448;9.984;2023-05-09T03:06:45;11.30;1.00
4308;DHT22;2167;53.448;9.984;2023-05-09T03:09:11;11.30;1.00
4308;DHT22;2167;53.448;9.984;2023-05-09T03:11:36;11.20;1.00
4308;DHT22;2167;53.448;9.984;2023-05-09T03:14:02;11.20;1.00
4308;DHT22;2167;53.448;9.984;2023-05-09T03:16:28;11.20;1.00
4308;DHT22;2167;53.448;9.984;2023-05-09T03:18:54;11.20;1.00
4308;DHT22;2167;53.448;9.984;2023-05-09T03:21:19;11.10;1.00
4308;DHT22;2167;53.448;9.984;2023-05-09T03:23:45;11.10;1.00
4308;DHT22;2167;53.448;9.984;2023-05-09T03:26:11;11.10;1.00
4308;DHT22;2167;53.448;9.984;2023-05-09T03:28:37;11.10;1.00
4308;DHT22;2167;53.448;9.984;2023-05-09T03:31:03;11.10;1.00
4308;DHT22;2167;53.448;9.984;2023-05-09T03:33:28;11.10;1.00
4308;DHT22;2167;53.448;9.984;2023-05-09T03:35:54;11.00;1.00
4308;DHT22;2167;53.448;9.984;2023-05-09T03:38:20;11.00;1.00
4308;DHT22;2167;53.448;9.984;2023-05-09T03:40:49;11.00;1.00
4308;DHT22;2167;53.448;9.984;2023-05-09T03:43:14;11.00;1.00
4308;DHT22;2167;53.448;9.984;2023-05-09T03:45:40;10.90;1.00
4308;DHT22;2167;53.448;9.984;2023-05-09T03:48:06;10.90;1.00
4308;DHT22;2167;53.448;9.984;2023-05-09T03:50:34;10.80;1.00
4308;DHT22;2167;53.448;9.984;2023-05-09T03:53:00;10.70;1.00
4308;DHT22;2167;53.448;9.984;2023-05-09T03:55:25;10.70;1.00
4308;DHT22;2167;53.448;9.984;2023-05-09T03:57:53;10.60;1.00
4308;DHT22;2167;53.448;9.984;2023-05-09T04:00:19;10.70;1.00
4308;DHT22;2167;53.448;9.984;2023-05-09T04:02:44;10.70;1.00
4308;DHT22;2167;53.448;9.984;2023-05-09T04:05:10;10.70;1.00
4308;DHT22;2167;53.448;9.984;2023-05-09T04:07:36;10.70;1.00
4308;DHT22;2167;53.448;9.984;2023-05-09T04:10:02;10.70;1.00
4308;DHT22;2167;53.448;9.984;2023-05-09T04:12:28;10.80;1.00
4308;DHT22;2167;53.448;9.984;2023-05-09T04:14:53;10.80;1.00
4308;DHT22;2167;53.448;9.984;2023-05-09T04:17:19;10.80;1.00
4308;DHT22;2167;53.448;9.984;2023-05-09T04:19:44;10.80;1.00
4308;DHT22;2167;53.448;9.984;2023-05-09T04:22:10;10.80;1.00
4308;DHT22;2167;53.448;9.984;2023-05-09T04:24:36;10.80;1.00
4308;DHT22;2167;53.448;9.984;2023-05-09T04:27:02;10.80;1.00
4308;DHT22;2167;53.448;9.984;2023-05-09T04:29:28;10.80;1.00
4308;DHT22;2167;53.448;9.984;2023-05-09T04:31:53;10.70;1.00
4308;DHT22;2167;53.448;9.984;2023-05-09T04:34:19;10.70;1.00
4308;DHT22;2167;53.448;9.984;2023-05-09T04:36:45;10.70;1.00
4308;DHT22;2167;53.448;9.984;2023-05-09T04:39:10;10.70;1.00
4308;DHT22;2167;53.448;9.984;2023-05-09T04:41:37;10.70;1.00
4308;DHT22;2167;53.448;9.984;2023-05-09T04:44:03;10.70;1.00
4308;DHT22;2167;53.448;9.984;2023-05-09T04:46:28;10.80;1.00
4308;DHT22;2167;53.448;9.984;2023-05-09T04:48:54;10.80;1.00
4308;DHT22;2167;53.448;9.984;2023-05-09T04:51:19;10.80;1.00
4308;DHT22;2167;53.448;9.984;2023-05-09T04:53:45;10.80;1.00
4308;DHT22;2167;53.448;9.984;2023-05-09T04:56:11;10.90;1.00
4308;DHT22;2167;53.448;9.984;2023-05-09T04:58:36;10.90;1.00
4308;DHT22;2167;53.448;9.984;2023-05-09T05:01:05;10.90;1.00
4308;DHT22;2167;53.448;9.984;2023-05-09T05:03:31;10.90;1.00
4308;DHT22;2167;53.448;9.984;2023-05-09T05:05:56;10.90;1.00
4308;DHT22;2167;53.448;9.984;2023-05-09T05:08:22;10.90;1.00
4308;DHT22;2167;53.448;9.984;2023-05-09T05:10:48;11.00;1.00
4308;DHT22;2167;53.448;9.984;2023-05-09T05:13:14;11.00;1.00
4308;DHT22;2167;53.448;9.984;2023-05-09T05:15:41;11.00;1.00
4308;DHT22;2167;53.448;9.984;2023-05-09T05:18:06;11.00;1.00
4308;DHT22;2167;53.448;9.984;2023-05-09T05:20:32;11.10;1.00
4308;DHT22;2167;53.448;9.984;2023-05-09T05:22:58;11.10;1.00
4308;DHT22;2167;53.448;9.984;2023-05-09T05:25:24;11.10;1.00
4308;DHT22;2167;53.448;9.984;2023-05-09T05:27:50;11.10;1.00
4308;DHT22;2167;53.448;9.984;2023-05-09T05:30:16;11.10;1.00
4308;DHT22;2167;53.448;9.984;2023-05-09T05:32:42;11.10;1.00
4308;DHT22;2167;53.448;9.984;2023-05-09T05:35:09;11.10;1.00
4308;DHT22;2167;53.448;9.984;2023-05-09T05:37:37;11.10;1.00
4308;DHT22;2167;53.448;9.984;2023-05-09T05:40:03;11.20;1.00
4308;DHT22;2167;53.448;9.984;2023-05-09T05:42:30;11.30;1.00
4308;DHT22;2167;53.448;9.984;2023-05-09T05:44:56;11.30;1.00
4308;DHT22;2167;53.448;9.984;2023-05-09T05:47:21;11.40;1.00
4308;DHT22;2167;53.448;9.984;2023-05-09T05:49:47;11.50;1.00
4308;DHT22;2167;53.448;9.984;2023-05-09T05:52:13;11.60;1.00
4308;DHT22;2167;53.448;9.984;2023-05-09T05:54:39;11.70;1.00
4308;DHT22;2167;53.448;9.984;2023-05-09T05:57:04;11.70;1.00
4308;DHT22;2167;53.448;9.984;2023-05-09T05:59:30;11.70;1.00
4308;DHT22;2167;53.448;9.984;2023-05-09T06:01:55;11.80;1.00
4308;DHT22;2167;53.448;9.984;2023-05-09T06:04:21;11.90;1.00
4308;DHT22;2167;53.448;9.984;2023-05-09T06:06:46;11.90;1.00
4308;DHT22;2167;53.448;9.984;2023-05-09T06:09:12;12.00;1.00
4308;DHT22;2167;53.448;9.984;2023-05-09T06:11:38;12.10;1.00
4308;DHT22;2167;53.448;9.984;2023-05-09T06:14:03;12.20;1.00
4308;DHT22;2167;53.448;9.984;2023-05-09T06:16:29;12.20;1.00
4308;DHT22;2167;53.448;9.984;2023-05-09T06:18:54;12.30;1.00
4308;DHT22;2167;53.448;9.984;2023-05-09T06:21:20;12.20;1.00
4308;DHT22;2167;53.448;9.984;2023-05-09T06:23:46;12.30;1.00
4308;DHT22;2167;53.448;9.984;2023-05-09T06:26:11;12.30;1.00
4308;DHT22;2167;53.448;9.984;2023-05-09T06:28:38;12.30;1.00
4308;DHT22;2167;53.448;9.984;2023-05-09T06:31:04;12.40;1.00
4308;DHT22;2167;53.448;9.984;2023-05-09T06:33:30;12.50;1.00
4308;DHT22;2167;53.448;9.984;2023-05-09T06:35:58;12.50;1.00
4308;DHT22;2167;53.448;9.984;2023-05-09T06:38:23;12.70;1.00
4308;DHT22;2167;53.448;9.984;2023-05-09T06:40:49;12.80;1.00
4308;DHT22;2167;53.448;9.984;2023-05-09T06:43:15;12.80;1.00
4308;DHT22;2167;53.448;9.984;2023-05-09T06:45:40;12.90;1.00
4308;DHT22;2167;53.448;9.984;2023-05-09T06:48:09;13.00;1.00
4308;DHT22;2167;53.448;9.984;2023-05-09T06:50:34;13.00;1.00
4308;DHT22;2167;53.448;9.984;2023-05-09T06:53:00;13.00;1.00
4308;DHT22;2167;53.448;9.984;2023-05-09T06:55:26;13.00;1.00
4308;DHT22;2167;53.448;9.984;2023-05-09T06:57:51;13.10;1.00
4308;DHT22;2167;53.448;9.984;2023-05-09T07:00:17;13.20;1.00
4308;DHT22;2167;53.448;9.984;2023-05-09T07:02:43;13.30;1.00
4308;DHT22;2167;53.448;9.984;2023-05-09T07:05:09;13.50;1.00
4308;DHT22;2167;53.448;9.984;2023-05-09T07:07:35;13.60;1.00
4308;DHT22;2167;53.448;9.984;2023-05-09T07:10:01;13.60;1.00
4308;DHT22;2167;53.448;9.984;2023-05-09T07:12:30;13.70;1.00
4308;DHT22;2167;53.448;9.984;2023-05-09T07:14:56;13.90;1.00
4308;DHT22;2167;53.448;9.984;2023-05-09T07:17:22;14.00;1.00
4308;DHT22;2167;53.448;9.984;2023-05-09T07:19:49;14.20;1.00
4308;DHT22;2167;53.448;9.984;2023-05-09T07:22:14;14.20;1.00
4308;DHT22;2167;53.448;9.984;2023-05-09T07:24:40;14.30;1.00
4308;DHT22;2167;53.448;9.984;2023-05-09T07:27:06;14.30;1.00
4308;DHT22;2167;53.448;9.984;2023-05-09T07:29:31;14.40;1.00
4308;DHT22;2167;53.448;9.984;2023-05-09T07:31:57;14.50;1.00
4308;DHT22;2167;53.448;9.984;2023-05-09T07:34:22;14.70;1.00
4308;DHT22;2167;53.448;9.984;2023-05-09T07:36:49;14.70;1.00
4308;DHT22;2167;53.448;9.984;2023-05-09T07:39:15;14.90;1.00
4308;DHT22;2167;53.448;9.984;2023-05-09T07:41:41;15.10;1.00
4308;DHT22;2167;53.448;9.984;2023-05-09T07:44:07;15.20;1.00
4308;DHT22;2167;53.448;9.984;2023-05-09T07:46:34;15.40;1.00
4308;DHT22;2167;53.448;9.984;2023-05-09T07:49:02;15.60;1.00
4308;DHT22;2167;53.448;9.984;2023-05-09T07:51:27;15.80;1.00
4308;DHT22;2167;53.448;9.984;2023-05-09T07:53:53;16.00;1.00
4308;DHT22;2167;53.448;9.984;2023-05-09T07:56:20;16.10;1.00
4308;DHT22;2167;53.448;9.984;2023-05-09T07:58:47;16.30;1.00
4308;DHT22;2167;53.448;9.984;2023-05-09T08:01:12;16.30;1.00
4308;DHT22;2167;53.448;9.984;2023-05-09T08:03:38;16.40;1.00
4308;DHT22;2167;53.448;9.984;2023-05-09T08:06:03;16.30;1.00
4308;DHT22;2167;53.448;9.984;2023-05-09T08:08:29;16.40;1.00
4308;DHT22;2167;53.448;9.984;2023-05-09T08:10:55;16.50;1.00
4308;DHT22;2167;53.448;9.984;2023-05-09T08:13:20;16.70;1.00
4308;DHT22;2167;53.448;9.984;2023-05-09T08:15:47;16.70;1.00
4308;DHT22;2167;53.448;9.984;2023-05-09T08:18:12;17.00;1.00
4308;DHT22;2167;53.448;9.984;2023-05-09T08:20:38;17.30;1.00
4308;DHT22;2167;53.448;9.984;2023-05-09T08:23:04;17.60;1.00
4308;DHT22;2167;53.448;9.984;2023-05-09T08:25:30;18.00;1.00
4308;DHT22;2167;53.448;9.984;2023-05-09T08:27:56;18.20;1.00
4308;DHT22;2167;53.448;9.984;2023-05-09T08:30:22;18.20;1.00
4308;DHT22;2167;53.448;9.984;2023-05-09T08:32:47;18.40;1.00
4308;DHT22;2167;53.448;9.984;2023-05-09T08:35:13;18.60;1.00
4308;DHT22;2167;53.448;9.984;2023-05-09T08:37:38;18.80;1.00
4308;DHT22;2167;53.448;9.984;2023-05-09T08:40:04;18.80;1.00
4308;DHT22;2167;53.448;9.984;2023-05-09T08:42:36;18.70;1.00
4308;DHT22;2167;53.448;9.984;2023-05-09T08:45:09;18.70;1.00
4308;DHT22;2167;53.448;9.984;2023-05-09T08:47:36;18.70;1.00
4308;DHT22;2167;53.448;9.984;2023-05-09T08:50:03;18.70;1.00
4308;DHT22;2167;53.448;9.984;2023-05-09T08:52:32;18.70;1.00
4308;DHT22;2167;53.448;9.984;2023-05-09T08:55:02;18.80;1.00
4308;DHT22;2167;53.448;9.984;2023-05-09T08:57:31;18.90;1.00
4308;DHT22;2167;53.448;9.984;2023-05-09T08:59:59;19.00;1.00
4308;DHT22;2167;53.448;9.984;2023-05-09T09:02:25;19.20;1.00
4308;DHT22;2167;53.448;9.984;2023-05-09T09:04:51;19.40;1.00
4308;DHT22;2167;53.448;9.984;2023-05-09T09:07:19;19.40;1.00
4308;DHT22;2167;53.448;9.984;2023-05-09T09:09:48;19.60;1.00
4308;DHT22;2167;53.448;9.984;2023-05-09T09:12:15;19.90;1.00
4308;DHT22;2167;53.448;9.984;2023-05-09T09:14:47;20.10;1.00
4308;DHT22;2167;53.448;9.984;2023-05-09T09:17:16;20.20;1.00
4308;DHT22;2167;53.448;9.984;2023-05-09T09:19:44;20.30;1.00
4308;DHT22;2167;53.448;9.984;2023-05-09T09:22:15;20.40;1.00
4308;DHT22;2167;53.448;9.984;2023-05-09T09:24:43;20.40;1.00
4308;DHT22;2167;53.448;9.984;2023-05-09T09:27:08;20.60;1.00
4308;DHT22;2167;53.448;9.984;2023-05-09T09:29:34;20.60;1.00
4308;DHT22;2167;53.448;9.984;2023-05-09T09:32:04;20.70;1.00
4308;DHT22;2167;53.448;9.984;2023-05-09T09:34:30;20.90;1.00
4308;DHT22;2167;53.448;9.984;2023-05-09T09:36:55;21.10;1.00
4308;DHT22;2167;53.448;9.984;2023-05-09T09:39:21;21.30;1.00
4308;DHT22;2167;53.448;9.984;2023-05-09T09:41:47;21.40;1.00
4308;DHT22;2167;53.448;9.984;2023-05-09T09:44:15;21.60;1.00
4308;DHT22;2167;53.448;9.984;2023-05-09T09:46:46;21.70;1.00
4308;DHT22;2167;53.448;9.984;2023-05-09T09:49:13;21.70;1.00
4308;DHT22;2167;53.448;9.984;2023-05-09T09:51:43;21.90;1.00
4308;DHT22;2167;53.448;9.984;2023-05-09T09:54:10;22.10;1.00
4308;DHT22;2167;53.448;9.984;2023-05-09T09:56:40;22.30;1.00
4308;DHT22;2167;53.448;9.984;2023-05-09T10:02:02;22.40;1.00
4308;DHT22;2167;53.448;9.984;2023-05-09T10:04:33;22.50;1.00
4308;DHT22;2167;53.448;9.984;2023-05-09T10:07:07;22.40;1.00
4308;DHT22;2167;53.448;9.984;2023-05-09T10:09:35;22.60;1.00
4308;DHT22;2167;53.448;9.984;2023-05-09T10:12:07;22.80;1.00
4308;DHT22;2167;53.448;9.984;2023-05-09T10:14:34;22.90;1.00
4308;DHT22;2167;53.448;9.984;2023-05-09T10:17:02;23.20;1.00
4308;DHT22;2167;53.448;9.984;2023-05-09T10:19:28;23.40;1.00
4308;DHT22;2167;53.448;9.984;2023-05-09T10:21:56;23.30;1.00
4308;DHT22;2167;53.448;9.984;2023-05-09T10:24:38;23.40;1.00
4308;DHT22;2167;53.448;9.984;2023-05-09T10:27:17;23.60;1.00
4308;DHT22;2167;53.448;9.984;2023-05-09T10:29:48;23.80;1.00
4308;DHT22;2167;53.448;9.984;2023-05-09T10:32:31;23.70;1.00
4308;DHT22;2167;53.448;9.984;2023-05-09T10:35:04;23.70;1.00
4308;DHT22;2167;53.448;9.984;2023-05-09T10:37:31;23.80;1.00
4308;DHT22;2167;53.448;9.984;2023-05-09T10:40:00;23.90;1.00
4308;DHT22;2167;53.448;9.984;2023-05-09T10:42:28;23.90;1.00
4308;DHT22;2167;53.448;9.984;2023-05-09T10:44:54;24.00;1.00
4308;DHT22;2167;53.448;9.984;2023-05-09T10:47:20;24.00;1.00
4308;DHT22;2167;53.448;9.984;2023-05-09T10:49:47;24.20;1.00
4308;DHT22;2167;53.448;9.984;2023-05-09T10:52:14;24.40;1.00
4308;DHT22;2167;53.448;9.984;2023-05-09T10:54:41;24.50;1.00
4308;DHT22;2167;53.448;9.984;2023-05-09T10:57:08;24.30;1.00
4308;DHT22;2167;53.448;9.984;2023-05-09T10:59:39;24.30;1.00
4308;DHT22;2167;53.448;9.984;2023-05-09T11:02:11;24.40;1.00
4308;DHT22;2167;53.448;9.984;2023-05-09T11:04:38;24.40;1.00
4308;DHT22;2167;53.448;9.984;2023-05-09T11:07:25;24.30;1.00
4308;DHT22;2167;53.448;9.984;2023-05-09T11:10:17;24.20;1.00
4308;DHT22;2167;53.448;9.984;2023-05-09T11:12:56;24.00;1.00
4308;DHT22;2167;53.448;9.984;2023-05-09T11:15:22;24.10;1.00
4308;DHT22;2167;53.448;9.984;2023-05-09T11:18:06;24.00;1.00
4308;DHT22;2167;53.448;9.984;2023-05-09T11:20:33;24.10;1.00
4308;DHT22;2167;53.448;9.984;2023-05-09T11:23:01;24.10;1.00
4308;DHT22;2167;53.448;9.984;2023-05-09T11:25:28;24.30;1.00
4308;DHT22;2167;53.448;9.984;2023-05-09T11:27:58;24.40;1.00
4308;DHT22;2167;53.448;9.984;2023-05-09T11:30:39;24.30;1.00
4308;DHT22;2167;53.448;9.984;2023-05-09T11:33:05;24.20;1.00
4308;DHT22;2167;53.448;9.984;2023-05-09T11:35:32;24.20;1.00
4308;DHT22;2167;53.448;9.984;2023-05-09T11:38:03;24.20;1.00
4308;DHT22;2167;53.448;9.984;2023-05-09T11:40:30;24.40;1.00
4308;DHT22;2167;53.448;9.984;2023-05-09T11:42:57;24.50;1.00
4308;DHT22;2167;53.448;9.984;2023-05-09T11:45:25;24.70;1.00
4308;DHT22;2167;53.448;9.984;2023-05-09T11:47:51;24.70;1.00
4308;DHT22;2167;53.448;9.984;2023-05-09T11:50:18;24.70;1.00
4308;DHT22;2167;53.448;9.984;2023-05-09T11:52:45;24.70;1.00
4308;DHT22;2167;53.448;9.984;2023-05-09T11:55:16;24.50;1.00
4308;DHT22;2167;53.448;9.984;2023-05-09T11:57:47;24.40;1.00
4308;DHT22;2167;53.448;9.984;2023-05-09T12:00:25;24.40;1.00
4308;DHT22;2167;53.448;9.984;2023-05-09T12:02:51;24.30;1.00
4308;DHT22;2167;53.448;9.984;2023-05-09T12:05:19;24.10;1.00
4308;DHT22;2167;53.448;9.984;2023-05-09T12:07:46;23.90;1.00
4308;DHT22;2167;53.448;9.984;2023-05-09T12:10:17;23.80;1.00
4308;DHT22;2167;53.448;9.984;2023-05-09T12:12:45;23.60;1.00
4308;DHT22;2167;53.448;9.984;2023-05-09T12:15:12;23.40;1.00
4308;DHT22;2167;53.448;9.984;2023-05-09T12:17:39;23.30;1.00
4308;DHT22;2167;53.448;9.984;2023-05-09T12:20:05;23.30;1.00
4308;DHT22;2167;53.448;9.984;2023-05-09T12:22:32;23.30;1.00
4308;DHT22;2167;53.448;9.984;2023-05-09T12:25:07;23.40;1.00
4308;DHT22;2167;53.448;9.984;2023-05-09T12:27:35;23.50;1.00
4308;DHT22;2167;53.448;9.984;2023-05-09T12:30:05;23.80;1.00
4308;DHT22;2167;53.448;9.984;2023-05-09T12:32:40;23.90;1.00
4308;DHT22;2167;53.448;9.984;2023-05-09T12:35:08;23.70;1.00
4308;DHT22;2167;53.448;9.984;2023-05-09T12:37:34;23.80;1.00
4308;DHT22;2167;53.448;9.984;2023-05-09T12:40:05;23.90;1.00
4308;DHT22;2167;53.448;9.984;2023-05-09T12:42:34;24.10;1.00
4308;DHT22;2167;53.448;9.984;2023-05-09T12:45:01;24.30;1.00
4308;DHT22;2167;53.448;9.984;2023-05-09T12:47:28;24.40;1.00
4308;DHT22;2167;53.448;9.984;2023-05-09T12:50:01;24.60;1.00
4308;DHT22;2167;53.448;9.984;2023-05-09T12:52:36;24.50;1.00
4308;DHT22;2167;53.448;9.984;2023-05-09T12:57:34;24.60;1.00
4308;DHT22;2167;53.448;9.984;2023-05-09T13:00:01;24.70;1.00
4308;DHT22;2167;53.448;9.984;2023-05-09T13:02:36;24.70;1.00
4308;DHT22;2167;53.448;9.984;2023-05-09T13:05:13;24.60;1.00
4308;DHT22;2167;53.448;9.984;2023-05-09T13:07:43;24.30;1.00
4308;DHT22;2167;53.448;9.984;2023-05-09T13:12:37;24.30;1.00
4308;DHT22;2167;53.448;9.984;2023-05-09T13:15:04;24.30;1.00
4308;DHT22;2167;53.448;9.984;2023-05-09T13:17:29;24.30;1.00
4308;DHT22;2167;53.448;9.984;2023-05-09T13:19:55;24.30;1.00
4308;DHT22;2167;53.448;9.984;2023-05-09T13:22:21;24.40;1.00
4308;DHT22;2167;53.448;9.984;2023-05-09T13:24:46;24.50;1.00
4308;DHT22;2167;53.448;9.984;2023-05-09T13:27:12;24.50;1.00
4308;DHT22;2167;53.448;9.984;2023-05-09T13:29:37;24.60;1.00
4308;DHT22;2167;53.448;9.984;2023-05-09T13:32:03;24.80;1.00
4308;DHT22;2167;53.448;9.984;2023-05-09T13:34:29;24.70;1.00
4308;DHT22;2167;53.448;9.984;2023-05-09T13:36:54;24.80;1.00
4308;DHT22;2167;53.448;9.984;2023-05-09T13:39:20;24.90;1.00
4308;DHT22;2167;53.448;9.984;2023-05-09T13:41:46;24.90;1.00
4308;DHT22;2167;53.448;9.984;2023-05-09T13:44:13;24.80;1.00
4308;DHT22;2167;53.448;9.984;2023-05-09T13:46:38;24.70;1.00
4308;DHT22;2167;53.448;9.984;2023-05-09T13:49:04;24.80;1.00
4308;DHT22;2167;53.448;9.984;2023-05-09T13:51:30;24.80;1.00
4308;DHT22;2167;53.448;9.984;2023-05-09T13:53:58;24.60;1.00
4308;DHT22;2167;53.448;9.984;2023-05-09T13:56:23;24.50;1.00
4308;DHT22;2167;53.448;9.984;2023-05-09T13:58:49;24.60;1.00
4308;DHT22;2167;53.448;9.984;2023-05-09T14:01:15;24.60;1.00
4308;DHT22;2167;53.448;9.984;2023-05-09T14:03:40;24.50;1.00
4308;DHT22;2167;53.448;9.984;2023-05-09T14:06:06;24.50;1.00
4308;DHT22;2167;53.448;9.984;2023-05-09T14:08:33;24.50;1.00
4308;DHT22;2167;53.448;9.984;2023-05-09T14:10:59;24.60;1.00
4308;DHT22;2167;53.448;9.984;2023-05-09T14:13:25;24.60;1.00
4308;DHT22;2167;53.448;9.984;2023-05-09T14:15:51;24.50;1.00
4308;DHT22;2167;53.448;9.984;2023-05-09T14:18:17;24.50;1.00
4308;DHT22;2167;53.448;9.984;2023-05-09T14:20:42;24.60;1.00
4308;DHT22;2167;53.448;9.984;2023-05-09T14:23:08;24.60;1.00
4308;DHT22;2167;53.448;9.984;2023-05-09T14:25:34;24.50;1.00
4308;DHT22;2167;53.448;9.984;2023-05-09T14:28:02;24.50;1.00
4308;DHT22;2167;53.448;9.984;2023-05-09T14:30:28;24.60;1.00
4308;DHT22;2167;53.448;9.984;2023-05-09T14:32:53;24.70;1.00
4308;DHT22;2167;53.448;9.984;2023-05-09T14:35:19;24.90;1.00
4308;DHT22;2167;53.448;9.984;2023-05-09T14:37:45;25.10;1.00
4308;DHT22;2167;53.448;9.984;2023-05-09T14:40:10;25.10;1.00
4308;DHT22;2167;53.448;9.984;2023-05-09T14:42:36;25.10;1.00
4308;DHT22;2167;53.448;9.984;2023-05-09T14:45:03;25.20;1.00
4308;DHT22;2167;53.448;9.984;2023-05-09T14:47:28;25.40;1.00
4308;DHT22;2167;53.448;9.984;2023-05-09T14:49:54;25.40;1.00
4308;DHT22;2167;53.448;9.984;2023-05-09T14:52:20;25.40;1.00
4308;DHT22;2167;53.448;9.984;2023-05-09T14:54:46;25.40;1.00
4308;DHT22;2167;53.448;9.984;2023-05-09T14:57:11;25.30;1.00
4308;DHT22;2167;53.448;9.984;2023-05-09T14:59:37;25.20;1.00
4308;DHT22;2167;53.448;9.984;2023-05-09T15:02:03;25.20;1.00
4308;DHT22;2167;53.448;9.984;2023-05-09T15:04:28;25.10;1.00
4308;DHT22;2167;53.448;9.984;2023-05-09T15:06:55;25.10;1.00
4308;DHT22;2167;53.448;9.984;2023-05-09T15:09:21;25.00;1.00
4308;DHT22;2167;53.448;9.984;2023-05-09T15:11:47;24.80;1.00
4308;DHT22;2167;53.448;9.984;2023-05-09T15:14:13;24.70;1.00
4308;DHT22;2167;53.448;9.984;2023-05-09T15:16:39;24.80;1.00
4308;DHT22;2167;53.448;9.984;2023-05-09T15:19:04;24.80;1.00
4308;DHT22;2167;53.448;9.984;2023-05-09T15:21:30;24.80;1.00
4308;DHT22;2167;53.448;9.984;2023-05-09T15:23:56;24.70;1.00
4308;DHT22;2167;53.448;9.984;2023-05-09T15:26:22;24.80;1.00
4308;DHT22;2167;53.448;9.984;2023-05-09T15:28:48;24.70;1.00
4308;DHT22;2167;53.448;9.984;2023-05-09T15:31:14;24.80;1.00
4308;DHT22;2167;53.448;9.984;2023-05-09T15:33:39;24.70;1.00
4308;DHT22;2167;53.448;9.984;2023-05-09T15:36:06;24.70;1.00
4308;DHT22;2167;53.448;9.984;2023-05-09T15:38:32;24.70;1.00
4308;DHT22;2167;53.448;9.984;2023-05-09T15:40:58;24.70;1.00
4308;DHT22;2167;53.448;9.984;2023-05-09T15:43:24;24.70;1.00
4308;DHT22;2167;53.448;9.984;2023-05-09T15:45:49;24.80;1.00
4308;DHT22;2167;53.448;9.984;2023-05-09T15:48:15;24.80;1.00
4308;DHT22;2167;53.448;9.984;2023-05-09T15:50:42;24.60;1.00
4308;DHT22;2167;53.448;9.984;2023-05-09T15:53:08;24.60;1.00
4308;DHT22;2167;53.448;9.984;2023-05-09T15:55:34;24.60;1.00
4308;DHT22;2167;53.448;9.984;2023-05-09T15:57:59;24.50;1.00
4308;DHT22;2167;53.448;9.984;2023-05-09T16:00:26;24.50;1.00
4308;DHT22;2167;53.448;9.984;2023-05-09T16:02:52;24.50;1.00
4308;DHT22;2167;53.448;9.984;2023-05-09T16:05:17;24.40;1.00
4308;DHT22;2167;53.448;9.984;2023-05-09T16:07:44;24.40;1.00
4308;DHT22;2167;53.448;9.984;2023-05-09T16:10:11;24.40;1.00
4308;DHT22;2167;53.448;9.984;2023-05-09T16:12:37;24.30;1.00
4308;DHT22;2167;53.448;9.984;2023-05-09T16:15:03;24.20;1.00
4308;DHT22;2167;53.448;9.984;2023-05-09T16:17:29;24.00;1.00
4308;DHT22;2167;53.448;9.984;2023-05-09T16:19:56;24.00;1.00
4308;DHT22;2167;53.448;9.984;2023-05-09T16:22:22;24.00;1.00
4308;DHT22;2167;53.448;9.984;2023-05-09T16:24:47;24.00;1.00
4308;DHT22;2167;53.448;9.984;2023-05-09T16:27:13;23.80;1.00
4308;DHT22;2167;53.448;9.984;2023-05-09T16:29:40;23.80;1.00
4308;DHT22;2167;53.448;9.984;2023-05-09T16:32:06;23.70;1.00
4308;DHT22;2167;53.448;9.984;2023-05-09T16:34:33;23.80;1.00
4308;DHT22;2167;53.448;9.984;2023-05-09T16:37:00;23.70;1.00